createdAt,value
2022-10-29T00:02:27.107Z,51.60
2022-10-29T00:04:55.002Z,51.60
2022-10-29T00:07:22.828Z,51.60
2022-10-29T00:09:50.612Z,51.70
2022-10-29T00:12:19.779Z,51.70
2022-10-29T00:14:47.595Z,52.30
2022-10-29T00:17:15.839Z,51.70
2022-10-29T00:19:43.682Z,51.60
2022-10-29T00:22:11.552Z,51.60
2022-10-29T00:24:39.435Z,51.70
2022-10-29T00:27:07.371Z,51.70
2022-10-29T00:29:36.552Z,51.70
2022-10-29T00:32:04.465Z,52.20
2022-10-29T00:34:32.318Z,51.70
2022-10-29T00:37:00.163Z,51.70
2022-10-29T00:39:29.498Z,51.70
2022-10-29T00:41:57.384Z,51.70
2022-10-29T00:44:35.267Z,51.70
2022-10-29T00:47:18.387Z,51.80
2022-10-29T00:49:48.236Z,51.70
2022-10-29T00:52:17.839Z,51.60
2022-10-29T00:54:47.747Z,51.60
2022-10-29T00:57:21.131Z,51.60
2022-10-29T01:02:24.790Z,51.60
2022-10-29T01:04:53.913Z,51.60
2022-10-29T01:07:22.908Z,51.60
2022-10-29T01:09:51.325Z,51.60
2022-10-29T01:12:39.529Z,51.60
2022-10-29T01:15:13.133Z,51.60
2022-10-29T01:17:56.199Z,51.60
2022-10-29T01:20:43.368Z,51.60
2022-10-29T01:23:38.691Z,51.60
2022-10-29T01:26:29.399Z,51.70
2022-10-29T01:29:13.390Z,51.60
2022-10-29T01:31:47.335Z,51.60
2022-10-29T01:34:23.624Z,51.60
2022-10-29T01:36:59.332Z,51.60
2022-10-29T01:39:35.379Z,51.60
2022-10-29T01:42:07.513Z,52.00
2022-10-29T01:44:39.751Z,51.60
2022-10-29T01:47:15.383Z,51.50
2022-10-29T01:49:46.102Z,51.50
2022-10-29T01:52:16.156Z,51.30
2022-10-29T01:54:45.844Z,50.50
2022-10-29T01:57:31.920Z,51.00
2022-10-29T02:00:02.699Z,51.00
2022-10-29T02:02:48.277Z,50.70
2022-10-29T02:05:26.728Z,50.80
2022-10-29T02:08:00.368Z,50.70
2022-10-29T02:10:34.467Z,50.80
2022-10-29T02:13:02.517Z,50.70
2022-10-29T02:15:36.200Z,50.70
2022-10-29T02:18:07.486Z,50.70
2022-10-29T02:20:35.855Z,50.80
2022-10-29T02:23:03.684Z,50.80
2022-10-29T02:25:31.579Z,50.70
2022-10-29T02:27:59.516Z,50.80
2022-10-29T02:30:27.461Z,50.80
2022-10-29T02:32:55.644Z,50.80
2022-10-29T02:35:24.970Z,50.90
2022-10-29T02:37:52.921Z,50.90
2022-10-29T02:40:20.747Z,50.90
2022-10-29T02:42:48.650Z,50.90
2022-10-29T02:45:16.551Z,50.90
2022-10-29T02:47:44.339Z,51.40
2022-10-29T02:50:12.155Z,50.90
2022-10-29T02:52:41.539Z,50.90
2022-10-29T02:55:10.160Z,50.80
2022-10-29T02:57:37.976Z,50.70
2022-10-29T03:00:06.743Z,50.60
2022-10-29T03:02:34.734Z,50.60
2022-10-29T03:05:02.704Z,50.60
2022-10-29T03:07:30.620Z,50.50
2022-10-29T03:09:59.779Z,50.60
2022-10-29T03:12:27.612Z,50.70
2022-10-29T03:14:55.412Z,50.70
2022-10-29T03:17:23.212Z,50.70
2022-10-29T03:19:51.091Z,50.80
2022-10-29T03:22:19.061Z,50.90
2022-10-29T03:24:46.881Z,51.10
2022-10-29T03:27:16.083Z,51.10
2022-10-29T03:29:43.914Z,51.30
2022-10-29T03:32:11.699Z,51.30
2022-10-29T03:34:39.490Z,51.50
2022-10-29T03:37:07.348Z,51.60
2022-10-29T03:39:35.151Z,51.50
2022-10-29T03:42:03.951Z,51.50
2022-10-29T03:44:33.183Z,51.50
2022-10-29T03:47:01.000Z,51.50
2022-10-29T03:49:28.850Z,51.50
2022-10-29T03:51:56.639Z,51.40
2022-10-29T03:54:24.502Z,51.50
2022-10-29T03:56:52.332Z,51.50
2022-10-29T03:59:20.148Z,51.40
2022-10-29T04:01:49.443Z,51.40
2022-10-29T04:04:17.454Z,51.40
2022-10-29T04:06:45.262Z,51.20
2022-10-29T04:09:13.115Z,51.20
2022-10-29T04:11:40.920Z,51.10
2022-10-29T04:14:10.740Z,51.20
2022-10-29T04:16:38.800Z,51.30
2022-10-29T04:19:08.008Z,51.30
2022-10-29T04:29:59.251Z,51.50
2022-10-29T04:32:27.079Z,51.70
2022-10-29T04:34:56.279Z,51.80
2022-10-29T04:37:24.142Z,51.90
2022-10-29T04:39:52.025Z,52.00
2022-10-29T04:42:19.864Z,52.10
2022-10-29T04:44:47.842Z,52.10
2022-10-29T04:47:15.795Z,52.10
2022-10-29T04:49:43.628Z,51.90
2022-10-29T04:52:12.839Z,51.80
2022-10-29T04:54:40.650Z,51.90
2022-10-29T04:57:08.445Z,51.80
2022-10-29T04:59:36.272Z,51.70
2022-10-29T05:02:04.068Z,51.70
2022-10-29T05:04:31.888Z,51.70
2022-10-29T05:06:59.726Z,51.70
2022-10-29T05:09:28.915Z,51.70
2022-10-29T05:11:56.765Z,51.70
2022-10-29T05:14:24.592Z,51.70
2022-10-29T05:16:52.481Z,51.70
2022-10-29T05:19:20.339Z,51.80
2022-10-29T05:21:48.146Z,51.90
2022-10-29T05:24:16.465Z,51.90
2022-10-29T05:26:45.651Z,52.00
2022-10-29T05:29:13.473Z,52.10
2022-10-29T05:31:41.275Z,52.00
2022-10-29T05:34:09.090Z,52.10
2022-10-29T05:36:36.900Z,52.20
2022-10-29T05:39:04.920Z,52.20
2022-10-29T05:41:32.777Z,52.30
2022-10-29T05:44:01.983Z,52.30
2022-10-29T05:46:29.800Z,52.40
2022-10-29T05:48:57.754Z,52.30
2022-10-29T05:51:25.595Z,52.20
2022-10-29T05:53:53.412Z,52.20
2022-10-29T05:56:21.226Z,52.10
2022-10-29T05:58:50.971Z,52.20
2022-10-29T06:01:20.243Z,52.20
2022-10-29T06:03:48.240Z,52.10
2022-10-29T06:06:16.187Z,52.10
2022-10-29T06:08:44.020Z,52.10
2022-10-29T06:11:11.831Z,52.30
2022-10-29T06:13:39.634Z,52.50
2022-10-29T06:16:08.588Z,52.60
2022-10-29T06:18:37.792Z,52.80
2022-10-29T06:21:05.967Z,52.80
2022-10-29T06:23:33.833Z,52.90
2022-10-29T06:26:01.817Z,53.00
2022-10-29T06:28:33.759Z,52.90
2022-10-29T06:31:02.895Z,53.00
2022-10-29T06:33:30.781Z,52.90
2022-10-29T06:36:01.038Z,52.90
2022-10-29T06:38:28.933Z,52.90
2022-10-29T06:40:56.782Z,52.90
2022-10-29T06:43:24.617Z,52.90
2022-10-29T06:45:52.507Z,52.90
2022-10-29T06:48:22.505Z,53.00
2022-10-29T06:50:51.019Z,53.00
2022-10-29T06:53:20.940Z,53.00
2022-10-29T06:55:49.168Z,53.00
2022-10-29T06:58:18.453Z,52.90
2022-10-29T07:00:47.186Z,53.00
2022-10-29T07:03:16.083Z,53.00
2022-10-29T07:05:44.136Z,53.10
2022-10-29T07:08:12.723Z,53.10
2022-10-29T07:10:42.141Z,53.20
2022-10-29T07:13:10.784Z,53.40
2022-10-29T07:15:38.559Z,53.50
2022-10-29T07:18:07.863Z,53.60
2022-10-29T07:20:37.738Z,53.90
2022-10-29T07:23:05.732Z,54.00
2022-10-29T07:25:34.266Z,54.00
2022-10-29T07:28:06.309Z,54.10
2022-10-29T07:30:34.421Z,54.30
2022-10-29T07:33:02.203Z,54.30
2022-10-29T07:35:30.516Z,54.50
2022-10-29T07:38:05.257Z,54.80
2022-10-29T07:40:38.447Z,55.00
2022-10-29T07:43:07.659Z,55.00
2022-10-29T07:45:35.570Z,55.20
2022-10-29T07:48:05.262Z,55.50
2022-10-29T07:50:33.236Z,55.80
2022-10-29T07:53:01.505Z,55.90
2022-10-29T07:58:04.908Z,56.10
2022-10-29T08:00:35.665Z,56.10
2022-10-29T08:03:03.653Z,56.00
2022-10-29T08:05:32.230Z,55.90
2022-10-29T08:08:00.906Z,55.70
2022-10-29T08:10:30.554Z,55.50
2022-10-29T08:13:00.768Z,55.20
2022-10-29T08:15:30.551Z,54.90
2022-10-29T08:18:00.199Z,54.70
2022-10-29T08:20:30.318Z,54.50
2022-10-29T08:23:01.265Z,54.30
2022-10-29T08:25:29.640Z,54.20
2022-10-29T08:28:01.755Z,54.10
2022-10-29T08:30:29.963Z,53.90
2022-10-29T08:33:00.156Z,53.90
2022-10-29T08:35:29.142Z,53.90
2022-10-29T08:37:57.230Z,53.90
2022-10-29T08:40:30.928Z,54.00
2022-10-29T08:43:25.642Z,54.00
2022-10-29T08:45:55.373Z,54.00
2022-10-29T08:48:38.586Z,54.20
2022-10-29T08:51:12.469Z,54.20
2022-10-29T08:53:45.434Z,54.20
2022-10-29T08:56:23.217Z,54.30
2022-10-29T08:58:58.411Z,54.40
2022-10-29T09:01:26.315Z,54.40
2022-10-29T09:03:55.915Z,54.40
2022-10-29T09:06:32.688Z,54.50
2022-10-29T09:09:26.706Z,54.50
2022-10-29T09:12:22.385Z,54.70
2022-10-29T09:15:10.404Z,54.70
2022-10-29T09:17:46.903Z,55.00
2022-10-29T09:20:25.321Z,55.20
2022-10-29T09:23:02.902Z,55.50
2022-10-29T09:25:34.074Z,55.80
2022-10-29T09:28:17.660Z,56.00
2022-10-29T09:30:57.648Z,56.20
2022-10-29T09:33:27.222Z,56.50
2022-10-29T09:35:59.183Z,56.40
2022-10-29T09:38:31.430Z,56.20
2022-10-29T09:41:01.828Z,56.60
2022-10-29T09:43:38.665Z,57.30
2022-10-29T09:46:14.163Z,57.80
2022-10-29T09:48:55.400Z,58.30
2022-10-29T09:51:33.039Z,58.50
2022-10-29T09:54:01.268Z,58.40
2022-10-29T09:56:29.386Z,58.50
2022-10-29T09:59:08.213Z,58.40
2022-10-29T10:01:36.108Z,58.50
2022-10-29T10:04:14.159Z,59.10
2022-10-29T10:09:56.962Z,59.20
2022-10-29T10:12:27.725Z,59.50
2022-10-29T10:15:19.079Z,59.80
2022-10-29T10:18:00.017Z,59.60
2022-10-29T10:20:34.810Z,59.90
2022-10-29T10:25:37.897Z,58.90
2022-10-29T10:28:17.063Z,58.90
2022-10-29T10:30:45.438Z,58.80
2022-10-29T10:33:24.118Z,59.10
2022-10-29T10:35:53.708Z,58.10
2022-10-29T10:38:22.413Z,58.70
2022-10-29T10:41:01.906Z,57.70
2022-10-29T10:43:29.778Z,57.30
2022-10-29T10:46:00.533Z,58.00
2022-10-29T10:48:33.532Z,57.80
2022-10-29T10:51:16.282Z,57.70
2022-10-29T10:53:44.314Z,56.90
2022-10-29T10:56:19.876Z,58.60
2022-10-29T10:58:58.107Z,58.80
2022-10-29T11:01:30.732Z,58.80
2022-10-29T11:04:06.443Z,63.70
2022-10-29T11:06:37.946Z,58.30
2022-10-29T11:09:13.124Z,58.00
2022-10-29T11:11:46.375Z,57.10
2022-10-29T11:14:19.314Z,56.00
2022-10-29T11:16:51.644Z,59.50
2022-10-29T11:19:31.280Z,59.50
2022-10-29T11:22:13.258Z,54.80
2022-10-29T11:24:48.254Z,58.00
2022-10-29T11:27:39.183Z,57.60
2022-10-29T11:30:11.850Z,54.60
2022-10-29T11:32:51.652Z,52.50
2022-10-29T11:35:23.901Z,51.70
2022-10-29T11:37:58.286Z,50.50
2022-10-29T11:40:37.614Z,50.20
2022-10-29T11:43:11.713Z,49.80
2022-10-29T11:45:49.415Z,49.50
2022-10-29T11:51:02.831Z,49.70
2022-10-29T11:53:45.434Z,49.20
2022-10-29T11:56:18.397Z,49.40
2022-10-29T11:58:55.558Z,49.80
2022-10-29T12:01:31.894Z,49.10
2022-10-29T12:04:25.337Z,49.00
2022-10-29T12:07:05.583Z,50.50
2022-10-29T12:09:56.208Z,50.30
2022-10-29T12:12:31.986Z,50.40
2022-10-29T12:15:13.803Z,50.30
2022-10-29T12:17:48.402Z,50.00
2022-10-29T12:20:26.768Z,50.00
2022-10-29T12:23:05.269Z,49.70
2022-10-29T12:25:43.208Z,49.10
2022-10-29T12:28:19.999Z,48.50
2022-10-29T12:31:04.997Z,47.30
2022-10-29T12:33:42.566Z,46.50
2022-10-29T12:36:19.540Z,45.70
2022-10-29T12:38:51.668Z,45.30
2022-10-29T12:41:24.924Z,44.80
2022-10-29T12:43:55.539Z,44.70
2022-10-29T12:46:32.765Z,44.80
2022-10-29T12:49:09.274Z,44.60
2022-10-29T12:51:45.052Z,44.70
2022-10-29T12:54:24.055Z,45.10
2022-10-29T12:56:51.898Z,45.30
2022-10-29T12:59:30.511Z,45.70
2022-10-29T13:02:24.051Z,45.90
2022-10-29T13:05:35.589Z,45.90
2022-10-29T13:08:21.948Z,46.10
2022-10-29T13:10:55.178Z,46.20
2022-10-29T13:13:49.775Z,46.30
2022-10-29T13:16:21.567Z,46.30
2022-10-29T13:19:03.171Z,46.70
2022-10-29T13:21:56.251Z,47.00
2022-10-29T13:24:24.548Z,47.10
2022-10-29T13:26:57.848Z,47.40
2022-10-29T13:29:43.271Z,47.70
2022-10-29T13:32:30.492Z,47.80
2022-10-29T13:35:01.157Z,48.00
2022-10-29T13:37:51.131Z,48.20
2022-10-29T13:40:54.473Z,48.40
2022-10-29T13:43:23.223Z,48.60
2022-10-29T13:46:02.731Z,48.80
2022-10-29T13:48:33.456Z,48.90
2022-10-29T13:51:07.594Z,49.00
2022-10-29T13:53:43.202Z,49.20
2022-10-29T13:56:23.729Z,49.50
2022-10-29T13:58:53.758Z,49.60
2022-10-29T14:01:23.968Z,49.50
2022-10-29T14:04:00.519Z,49.60
2022-10-29T14:06:33.962Z,49.90
2022-10-29T14:09:12.891Z,49.80
2022-10-29T14:11:44.517Z,49.90
2022-10-29T14:14:25.385Z,49.90
2022-10-29T14:17:10.668Z,50.10
2022-10-29T14:19:38.787Z,50.20
2022-10-29T14:22:33.359Z,49.90
2022-10-29T14:25:02.054Z,50.30
2022-10-29T14:27:30.431Z,50.10
2022-10-29T14:30:18.079Z,50.20
2022-10-29T14:32:46.353Z,50.50
2022-10-29T14:35:17.547Z,50.20
2022-10-29T14:37:49.407Z,50.40
2022-10-29T14:40:21.179Z,50.40
2022-10-29T14:42:54.454Z,50.60
2022-10-29T14:45:26.033Z,50.40
2022-10-29T14:47:56.442Z,50.40
2022-10-29T14:50:26.418Z,50.40
2022-10-29T14:52:58.961Z,50.50
2022-10-29T14:55:29.338Z,50.70
2022-10-29T14:58:04.576Z,50.70
2022-10-29T15:00:35.717Z,50.90
2022-10-29T15:03:04.407Z,50.80
2022-10-29T15:05:34.868Z,50.80
2022-10-29T15:08:13.816Z,50.70
2022-10-29T15:10:49.577Z,50.80
2022-10-29T15:13:30.305Z,50.50
2022-10-29T15:16:01.531Z,51.00
2022-10-29T15:18:30.527Z,50.80
2022-10-29T15:20:58.533Z,50.90
2022-10-29T15:23:29.423Z,50.90
2022-10-29T15:26:02.668Z,51.10
2022-10-29T15:28:32.559Z,51.20
2022-10-29T15:31:03.396Z,51.00
2022-10-29T15:33:32.467Z,51.00
2022-10-29T15:36:02.642Z,50.90
2022-10-29T15:39:12.691Z,50.90
2022-10-29T15:41:47.001Z,50.90
2022-10-29T15:44:39.372Z,51.00
2022-10-29T15:47:28.685Z,51.00
2022-10-29T15:49:56.636Z,50.40
2022-10-29T15:52:32.709Z,50.70
2022-10-29T15:55:01.698Z,50.90
2022-10-29T15:57:31.819Z,50.80
2022-10-29T16:00:05.370Z,50.80
2022-10-29T16:02:33.592Z,51.00
2022-10-29T16:05:01.473Z,50.80
2022-10-29T16:07:29.368Z,50.80
2022-10-29T16:09:59.475Z,50.90
2022-10-29T16:12:27.560Z,51.10
2022-10-29T16:14:56.830Z,51.00
2022-10-29T16:17:24.636Z,51.10
2022-10-29T16:19:52.431Z,51.00
2022-10-29T16:22:27.763Z,51.00
2022-10-29T16:24:56.078Z,51.10
2022-10-29T16:27:23.876Z,51.70
2022-10-29T16:29:51.706Z,49.50
2022-10-29T16:32:24.136Z,50.70
2022-10-29T16:34:53.074Z,51.00
2022-10-29T16:37:21.624Z,50.70
2022-10-29T16:39:49.491Z,50.70
2022-10-29T16:42:30.789Z,50.70
2022-10-29T16:44:58.600Z,51.10
2022-10-29T16:47:28.438Z,50.80
2022-10-29T16:49:56.499Z,50.90
2022-10-29T16:52:28.855Z,50.80
2022-10-29T16:54:57.552Z,50.90
2022-10-29T16:57:26.016Z,50.80
2022-10-29T16:59:53.805Z,50.80
2022-10-29T17:02:21.635Z,50.80
2022-10-29T17:04:50.909Z,50.90
2022-10-29T17:07:19.044Z,50.90
2022-10-29T17:09:46.928Z,50.90
2022-10-29T17:12:14.747Z,50.90
2022-10-29T17:14:42.596Z,50.90
2022-10-29T17:17:10.412Z,50.90
2022-10-29T17:19:38.225Z,50.90
2022-10-29T17:22:10.440Z,50.80
2022-10-29T17:24:38.263Z,51.00
2022-10-29T17:27:06.108Z,50.90
2022-10-29T17:29:36.418Z,50.90
2022-10-29T17:32:05.905Z,51.00
2022-10-29T17:34:34.095Z,51.50
2022-10-29T17:37:01.950Z,51.00
2022-10-29T17:39:31.242Z,51.00
2022-10-29T17:41:59.273Z,51.00
2022-10-29T17:44:27.535Z,51.00
2022-10-29T17:46:55.416Z,50.90
2022-10-29T17:49:23.259Z,50.90
2022-10-29T17:51:51.041Z,50.80
2022-10-29T17:54:21.224Z,50.70
2022-10-29T17:56:51.431Z,50.70
2022-10-29T17:59:19.260Z,50.80
2022-10-29T18:01:47.395Z,50.70
2022-10-29T18:04:15.364Z,50.60
2022-10-29T18:06:43.223Z,50.70
2022-10-29T18:09:11.244Z,50.70
2022-10-29T18:11:39.116Z,50.10
2022-10-29T18:14:08.393Z,50.70
2022-10-29T18:16:36.311Z,50.80
2022-10-29T18:19:04.129Z,50.70
2022-10-29T18:21:32.375Z,50.80
2022-10-29T18:24:00.224Z,50.80
2022-10-29T18:26:30.693Z,50.80
2022-10-29T18:29:00.725Z,50.90
2022-10-29T18:31:31.737Z,50.90
2022-10-29T18:34:00.938Z,50.90
2022-10-29T18:36:29.187Z,50.90
2022-10-29T18:38:59.944Z,50.80
2022-10-29T18:41:27.977Z,51.00
2022-10-29T18:43:56.121Z,50.90
2022-10-29T18:46:23.976Z,50.80
2022-10-29T18:48:53.186Z,50.80
2022-10-29T18:53:53.108Z,50.30
2022-10-29T18:56:22.772Z,51.20
2022-10-29T18:58:50.674Z,50.70
2022-10-29T19:01:20.521Z,50.70
2022-10-29T19:03:50.945Z,50.90
2022-10-29T19:06:21.427Z,50.90
2022-10-29T19:08:49.332Z,51.00
2022-10-29T19:11:19.171Z,50.80
2022-10-29T19:13:51.088Z,50.80
2022-10-29T19:16:19.378Z,50.90
2022-10-29T19:18:47.354Z,50.70
2022-10-29T19:21:18.232Z,50.70
2022-10-29T19:23:47.435Z,50.80
2022-10-29T19:26:17.505Z,50.80
2022-10-29T19:28:46.563Z,50.70
2022-10-29T19:31:16.704Z,50.70
2022-10-29T19:33:48.589Z,50.80
2022-10-29T19:36:16.857Z,50.90
2022-10-29T19:38:45.357Z,50.90
2022-10-29T19:41:14.978Z,51.00
2022-10-29T19:43:43.123Z,51.00
2022-10-29T19:46:13.034Z,51.00
2022-10-29T19:48:41.456Z,50.50
2022-10-29T19:51:10.651Z,51.00
2022-10-29T19:53:39.800Z,50.90
2022-10-29T19:56:10.956Z,50.80
2022-10-29T19:58:40.133Z,50.80
2022-10-29T20:01:09.497Z,50.70
2022-10-29T20:03:37.531Z,50.60
2022-10-29T20:06:06.330Z,50.60
2022-10-29T20:08:34.231Z,50.50
2022-10-29T20:11:02.230Z,50.60
2022-10-29T20:13:30.015Z,50.60
2022-10-29T20:15:59.379Z,50.60
2022-10-29T20:18:27.207Z,50.70
2022-10-29T20:20:56.306Z,50.50
2022-10-29T20:23:25.435Z,50.60
2022-10-29T20:25:53.322Z,50.50
2022-10-29T20:28:21.434Z,50.50
2022-10-29T20:30:49.279Z,50.50
2022-10-29T20:33:18.432Z,50.50
2022-10-29T20:35:46.217Z,50.60
2022-10-29T20:38:14.023Z,50.40
2022-10-29T20:40:41.866Z,50.50
2022-10-29T20:43:09.696Z,50.50
2022-10-29T20:45:37.536Z,50.40
2022-10-29T20:48:05.857Z,50.50
2022-10-29T20:50:35.022Z,50.40
2022-10-29T20:53:02.859Z,50.60
2022-10-29T20:55:30.712Z,50.60
2022-10-29T20:57:58.927Z,50.60
2022-10-29T21:00:26.997Z,50.80
2022-10-29T21:02:54.928Z,50.90
2022-10-29T21:05:22.762Z,51.00
2022-10-29T21:07:51.903Z,51.20
2022-10-29T21:10:19.713Z,51.40
2022-10-29T21:12:47.551Z,51.40
2022-10-29T21:15:15.520Z,51.40
2022-10-29T21:17:43.694Z,51.50
2022-10-29T21:20:11.722Z,51.50
2022-10-29T21:22:39.507Z,51.60
2022-10-29T21:25:09.676Z,51.60
2022-10-29T21:27:37.537Z,51.70
2022-10-29T21:30:06.355Z,51.60
2022-10-29T21:32:34.184Z,51.60
2022-10-29T21:35:02.016Z,51.60
2022-10-29T21:37:29.812Z,51.50
2022-10-29T21:40:00.218Z,51.50
2022-10-29T21:42:32.543Z,51.50
2022-10-29T21:45:00.433Z,51.50
2022-10-29T21:47:28.216Z,51.40
2022-10-29T21:49:55.995Z,51.40
2022-10-29T21:52:24.143Z,51.50
2022-10-29T21:54:52.174Z,51.40
2022-10-29T21:57:19.975Z,51.40
2022-10-29T21:59:49.128Z,51.40
2022-10-29T22:02:16.999Z,51.40
2022-10-29T22:04:45.087Z,51.30
2022-10-29T22:07:12.948Z,51.40
2022-10-29T22:09:40.803Z,51.30
2022-10-29T22:12:08.766Z,51.20
2022-10-29T22:14:36.567Z,51.20
2022-10-29T22:17:05.720Z,51.20
2022-10-29T22:19:33.498Z,51.70
2022-10-29T22:22:01.332Z,51.10
2022-10-29T22:24:29.143Z,51.10
2022-10-29T22:26:56.946Z,51.10
2022-10-29T22:29:24.803Z,51.10
2022-10-29T22:31:52.610Z,51.00
2022-10-29T22:34:21.772Z,51.00
2022-10-29T22:36:51.133Z,51.00
2022-10-29T22:39:19.281Z,50.90
2022-10-29T22:41:47.074Z,50.90
2022-10-29T22:44:14.880Z,50.90
2022-10-29T22:46:42.724Z,50.80
2022-10-29T22:49:12.068Z,50.80
2022-10-29T22:51:41.365Z,50.80
2022-10-29T22:54:09.186Z,50.80
2022-10-29T22:56:39.012Z,50.70
2022-10-29T22:59:07.341Z,50.70
2022-10-29T23:01:40.319Z,50.70
2022-10-29T23:04:12.085Z,50.60
2022-10-29T23:06:41.340Z,50.60
2022-10-29T23:09:09.191Z,50.60
2022-10-29T23:11:39.180Z,50.50
2022-10-29T23:14:07.353Z,50.50
2022-10-29T23:16:36.310Z,50.40
2022-10-29T23:19:06.356Z,50.50
2022-10-29T23:21:34.402Z,50.40
2022-10-29T23:24:03.677Z,50.40
2022-10-29T23:26:31.495Z,50.50
2022-10-29T23:28:59.279Z,50.30
2022-10-29T23:31:28.844Z,50.40
2022-10-29T23:33:58.615Z,50.30
2022-10-29T23:36:28.335Z,50.30
2022-10-29T23:38:56.786Z,50.20
2022-10-29T23:41:26.472Z,50.20
2022-10-29T23:43:54.665Z,50.30
2022-10-29T23:46:22.716Z,50.20
2022-10-29T23:48:50.862Z,50.20
2022-10-29T23:51:18.988Z,50.20
2022-10-29T23:53:49.171Z,50.10
2022-10-29T23:56:19.535Z,50.10
2022-10-29T23:58:48.720Z,50.60
